Time;durP1;ratioP1;P1;durP2;ratioP2;P2;SDS_P1;SDS_P2;PMS_P1;PMS_P2;Temp;Humidity;BMP_temperature;BMP_pressure;BME280_temperature;BME280_humidity;BME280_pressure;Samples;Min_cycle;Max_cycle;Signal;HPM_P1;HPM_P2
2021/04/14 00:01:58;;;;;;;26.35;10.95;;;;;;;3.55;62.03;101517.23;1767064;81;21135;-73
2021/04/14 00:04:25;;;;;;;15.50;7.42;;;;;;;3.55;62.09;101514.13;1767139;81;21144;-73
2021/04/14 00:06:59;;;;;;;24.12;8.25;;;;;;;3.51;62.15;101513.48;1767598;79;21194;-72
2021/04/14 00:09:29;;;;;;;22.95;7.72;;;;;;;3.51;62.21;101522.70;1756527;81;21219;-72
2021/04/14 00:11:57;;;;;;;15.53;7.37;;;;;;;3.49;62.27;101517.98;1762017;81;21229;-72
2021/04/14 00:14:25;;;;;;;22.15;7.65;;;;;;;3.45;62.33;101515.16;1761449;81;21596;-72
2021/04/14 00:16:52;;;;;;;20.55;7.70;;;;;;;3.42;62.38;101502.18;1764040;81;21132;-72
2021/04/14 00:19:18;;;;;;;19.20;7.42;;;;;;;3.40;62.45;101505.39;1765399;80;21167;-72
2021/04/14 00:21:44;;;;;;;22.87;7.45;;;;;;;3.38;62.49;101501.99;1771337;79;21600;-72
2021/04/14 00:24:12;;;;;;;24.27;7.58;;;;;;;3.36;62.56;101503.89;1748422;81;21127;-73
2021/04/14 00:26:38;;;;;;;15.38;5.47;;;;;;;3.33;62.62;101504.09;1753402;81;21187;-72
2021/04/14 00:29:06;;;;;;;20.68;5.67;;;;;;;3.30;62.69;101502.97;1796034;79;21605;-72
2021/04/14 00:31:36;;;;;;;13.48;5.92;;;;;;;3.29;62.79;101501.73;1734586;81;22129;-73
2021/04/14 00:34:13;;;;;;;18.90;6.05;;;;;;;3.26;62.84;101499.30;1733759;81;21878;-72
2021/04/14 00:36:41;;;;;;;19.55;6.25;;;;;;;3.24;62.92;101499.38;1752905;81;21128;-72
2021/04/14 00:39:11;;;;;;;17.92;7.20;;;;;;;3.24;63.01;101499.38;1753133;81;21144;-72
2021/04/14 00:41:38;;;;;;;16.90;6.70;;;;;;;3.22;63.08;101496.47;1753139;81;21140;-72
2021/04/14 00:44:04;;;;;;;14.93;6.00;;;;;;;3.24;63.16;101498.06;1753112;81;21200;-73
2021/04/14 00:46:31;;;;;;;21.55;7.85;;;;;;;3.22;63.23;101501.28;1753149;81;21125;-72
2021/04/14 00:48:57;;;;;;;17.75;6.80;;;;;;;3.20;63.32;101497.87;1753136;81;21136;-72
2021/04/14 00:51:25;;;;;;;16.48;5.90;;;;;;;3.18;63.38;101495.81;1750844;81;21176;-72
2021/04/14 00:53:51;;;;;;;17.12;6.05;;;;;;;3.15;63.43;101494.70;1751291;81;21584;-72
2021/04/14 00:56:18;;;;;;;20.65;6.58;;;;;;;3.12;63.51;101493.57;1753190;81;21263;-72
2021/04/14 00:58:44;;;;;;;17.85;5.78;;;;;;;3.11;63.58;101497.61;1752935;81;21160;-72
2021/04/14 01:01:10;;;;;;;19.65;6.70;;;;;;;3.09;63.67;101502.14;1747104;81;21148;-72
2021/04/14 01:03:37;;;;;;;20.43;6.90;;;;;;;3.07;63.72;101500.91;1723358;81;21177;-73
2021/04/14 01:06:17;;;;;;;17.37;6.35;;;;;;;3.06;63.76;101505.82;1723331;83;21703;-73
2021/04/14 01:08:44;;;;;;;15.98;6.42;;;;;;;3.03;63.81;101513.89;1725445;81;21174;-73
2021/04/14 01:11:11;;;;;;;18.05;6.30;;;;;;;3.00;63.88;101512.30;1723066;83;21148;-73
2021/04/14 01:13:37;;;;;;;19.15;5.97;;;;;;;2.98;63.95;101515.51;1725348;81;21203;-72
2021/04/14 01:16:04;;;;;;;16.57;5.42;;;;;;;2.96;64.03;101516.52;1724945;81;21612;-73
2021/04/14 01:18:33;;;;;;;13.10;5.08;;;;;;;2.95;64.09;101512.22;1723228;81;21626;-73
2021/04/14 01:21:00;;;;;;;16.82;5.87;;;;;;;2.94;64.17;101514.47;1729429;81;22301;-72
2021/04/14 01:23:29;;;;;;;16.27;6.42;;;;;;;2.92;64.23;101511.91;1751238;81;21175;-73
2021/04/14 01:25:55;;;;;;;16.87;5.15;;;;;;;2.92;64.30;101511.91;1753080;81;21629;-73
2021/04/14 01:28:28;;;;;;;14.25;5.58;;;;;;;2.91;64.37;101510.70;1752347;81;21167;-73
2021/04/14 01:30:55;;;;;;;17.50;5.70;;;;;;;2.90;64.45;101504.59;1751198;81;21151;-72
2021/04/14 01:33:23;;;;;;;16.82;6.00;;;;;;;2.89;64.52;101505.98;1752709;81;21208;-72
2021/04/14 01:35:49;;;;;;;12.28;5.45;;;;;;;2.88;64.60;101506.95;1746052;81;22092;-72
2021/04/14 01:38:16;;;;;;;20.17;5.40;;;;;;;2.87;64.68;101507.87;1761545;79;21629;-72
2021/04/14 01:40:42;;;;;;;14.50;5.85;;;;;;;2.86;64.75;101502.22;1748025;81;21636;-72
2021/04/14 01:43:08;;;;;;;15.80;5.60;;;;;;;2.85;64.83;101497.42;1754971;80;21251;-72
2021/04/14 01:45:38;;;;;;;15.03;5.12;;;;;;;2.84;64.90;101503.66;1779000;80;21403;-72
2021/04/14 01:48:05;;;;;;;9.40;4.45;;;;;;;2.82;64.97;101502.03;1749497;80;21164;-72
2021/04/14 01:50:32;;;;;;;15.45;6.67;;;;;;;2.80;65.07;101499.97;1748203;81;21184;-72
2021/04/14 01:52:58;;;;;;;17.48;5.55;;;;;;;2.77;65.12;101492.26;1748164;81;21311;-72
2021/04/14 01:55:26;;;;;;;14.95;5.55;;;;;;;2.75;65.19;101488.86;1781590;80;21168;-72
2021/04/14 01:57:53;;;;;;;15.43;6.35;;;;;;;2.72;65.23;101493.00;1780622;80;21206;-72
2021/04/14 02:00:25;;;;;;;13.28;5.33;;;;;;;2.72;65.29;101494.31;1748408;80;21146;-72
2021/04/14 02:02:52;;;;;;;13.95;5.95;;;;;;;2.70;65.35;101498.37;1780547;80;21164;-71
2021/04/14 02:05:22;;;;;;;16.25;5.60;;;;;;;2.66;65.41;101493.38;1780303;80;21191;-71
2021/04/14 02:07:48;;;;;;;;;;;;;;;2.65;65.47;101499.57;1774458;79;21155;-72
2021/04/14 02:10:14;;;;;;;10.10;4.15;;;;;;;2.62;65.53;101502.39;1796298;79;21200;-72
2021/04/14 02:12:42;;;;;;;11.80;4.35;;;;;;;2.61;65.60;101502.00;1753587;80;21173;-72
2021/04/14 02:15:13;;;;;;;12.58;4.17;;;;;;;2.59;65.65;101505.22;1739792;82;21200;-72
2021/04/14 02:17:39;;;;;;;15.90;5.05;;;;;;;2.59;65.73;101499.95;1740220;82;21133;-71
2021/04/14 02:20:07;;;;;;;13.68;4.40;;;;;;;2.58;65.81;101503.51;1739926;82;21771;-71
2021/04/14 02:22:33;;;;;;;10.35;3.83;;;;;;;2.59;65.88;101501.27;1740227;82;21200;-72
2021/04/14 02:25:00;;;;;;;15.83;4.60;;;;;;;2.59;65.94;101499.95;1767986;80;21152;-72
2021/04/14 02:27:26;;;;;;;12.88;4.97;;;;;;;2.58;66.04;101493.83;1793601;80;21623;-72
2021/04/14 02:29:52;;;;;;;12.45;4.25;;;;;;;2.59;66.12;101496.00;1793602;80;21120;-72
2021/04/14 02:32:18;;;;;;;12.90;4.53;;;;;;;2.57;66.19;101493.44;1793576;80;21186;-72
2021/04/14 02:34:45;;;;;;;16.52;4.28;;;;;;;2.58;66.28;101492.98;1795090;78;21278;-72
2021/04/14 02:37:11;;;;;;;15.93;4.10;;;;;;;2.58;66.34;101492.98;1802897;79;21684;-72
2021/04/14 02:39:37;;;;;;;11.55;4.35;;;;;;;2.57;66.39;101492.62;1802988;79;21163;-71
2021/04/14 02:42:04;;;;;;;16.67;4.10;;;;;;;2.55;66.44;101488.75;1802842;79;21150;-72
2021/04/14 02:44:30;;;;;;;18.52;5.15;;;;;;;2.55;66.51;101489.22;1802986;79;21627;-72
2021/04/14 02:46:57;;;;;;;17.40;5.42;;;;;;;2.53;66.52;101489.80;1802886;79;21143;-72
2021/04/14 02:49:26;;;;;;;14.47;5.83;;;;;;;2.49;66.58;101488.66;1802682;79;21241;-71
2021/04/14 02:51:53;;;;;;;14.45;5.67;;;;;;;2.47;66.61;101495.79;1803063;79;21166;-72
2021/04/14 02:54:19;;;;;;;16.65;5.42;;;;;;;2.47;66.66;101483.94;1802731;79;21549;-72
2021/04/14 02:56:46;;;;;;;10.25;4.30;;;;;;;2.47;66.69;101490.52;1803014;79;21209;-71
2021/04/14 02:59:12;;;;;;;11.03;4.78;;;;;;;2.49;66.72;101487.34;1802588;79;21193;-72
2021/04/14 03:01:39;;;;;;;11.83;4.85;;;;;;;2.51;66.77;101488.09;1776150;79;21210;-72
2021/04/14 03:04:06;;;;;;;16.48;5.28;;;;;;;2.53;66.82;101484.88;1769893;81;21175;-71
2021/04/14 03:06:35;;;;;;;13.55;4.28;;;;;;;2.55;66.86;101485.27;1769809;80;21150;-72
2021/04/14 03:09:01;;;;;;;9.97;4.73;;;;;;;2.56;66.93;101486.97;1770147;80;21600;-72
2021/04/14 03:11:28;;;;;;;15.63;5.47;;;;;;;2.55;67.00;101485.27;1769900;81;21632;-72
2021/04/14 03:13:55;;;;;;;13.10;4.85;;;;;;;2.55;67.10;101486.59;1769793;81;21179;-72
2021/04/14 03:16:22;;;;;;;11.53;3.72;;;;;;;2.53;67.16;101480.11;1769744;81;21151;-72
2021/04/14 03:18:48;;;;;;;12.75;4.00;;;;;;;2.49;67.22;101482.08;1769969;80;21182;-72
2021/04/14 03:21:14;;;;;;;14.45;4.90;;;;;;;2.47;67.29;101480.45;1769944;81;21122;-72
2021/04/14 03:23:41;;;;;;;14.65;6.25;;;;;;;2.46;67.34;101484.87;1770018;81;21160;-72
2021/04/14 03:26:07;;;;;;;11.25;4.70;;;;;;;2.42;67.39;101484.70;1769874;81;21705;-72
2021/04/14 03:28:34;;;;;;;15.08;5.45;;;;;;;2.40;67.43;101483.08;1770132;80;21190;-73
2021/04/14 03:31:01;;;;;;;15.15;6.35;;;;;;;2.38;67.47;101488.91;1770013;81;21123;-72
2021/04/14 03:33:27;;;;;;;22.40;5.70;;;;;;;2.34;67.51;101488.25;1770112;81;21123;-72
2021/04/14 03:35:53;;;;;;;14.68;5.30;;;;;;;2.32;67.53;101482.21;1762851;81;21269;-72
2021/04/14 03:38:20;;;;;;;16.67;4.67;;;;;;;2.28;67.59;101479.41;1742505;82;21188;-72
2021/04/14 03:40:46;;;;;;;14.68;4.75;;;;;;;2.25;67.60;101479.56;1694158;83;21219;-72
2021/04/14 03:43:13;;;;;;;15.10;4.72;;;;;;;2.22;67.62;101484.16;1755705;81;21588;-72
2021/04/14 03:45:42;;;;;;;15.05;4.47;;;;;;;2.21;67.67;101473.28;1742738;82;21122;-72
2021/04/14 03:48:08;;;;;;;16.45;5.53;;;;;;;2.19;67.71;101479.94;1694201;84;21748;-71
2021/04/14 03:50:35;;;;;;;17.17;4.67;;;;;;;2.19;67.75;101482.56;1755836;81;21597;-72
2021/04/14 03:53:14;;;;;;;9.00;3.72;;;;;;;2.17;67.77;101480.97;1756076;81;21616;-72
2021/04/14 03:55:41;;;;;;;14.13;3.17;;;;;;;2.14;67.81;101483.32;1755981;81;21164;-72
2021/04/14 03:58:07;;;;;;;15.05;3.77;;;;;;;2.13;67.85;101477.67;1756107;81;21136;-72
2021/04/14 04:00:34;;;;;;;13.95;5.00;;;;;;;2.12;67.89;101479.06;1766555;80;22109;-72
2021/04/14 04:03:00;;;;;;;16.45;4.83;;;;;;;2.10;67.93;101476.54;1785626;80;21140;-72
2021/04/14 04:05:26;;;;;;;10.82;4.75;;;;;;;2.10;67.99;101481.80;1778623;80;21625;-72
2021/04/14 04:07:53;;;;;;;12.03;4.12;;;;;;;2.09;68.03;101484.05;1785600;80;21112;-72
2021/04/14 04:10:19;;;;;;;12.33;4.53;;;;;;;2.09;68.07;101485.36;1785782;80;21137;-72
2021/04/14 04:12:46;;;;;;;11.03;3.90;;;;;;;2.07;68.12;101487.24;1785655;80;21568;-72
2021/04/14 04:15:13;;;;;;;14.05;4.10;;;;;;;2.05;68.16;101488.25;1785483;80;21597;-72
2021/04/14 04:17:40;;;;;;;13.55;4.37;;;;;;;2.04;68.23;101495.31;1785468;80;21132;-72
2021/04/14 04:20:08;;;;;;;16.12;4.87;;;;;;;2.01;68.28;101492.84;1785534;80;21191;-72
2021/04/14 04:22:34;;;;;;;17.00;6.70;;;;;;;2.00;68.37;101486.75;1785785;80;21140;-72
2021/04/14 04:25:01;;;;;;;15.60;6.90;;;;;;;1.99;68.42;101490.31;1785447;80;21199;-72
2021/04/14 04:27:27;;;;;;;8.98;4.10;;;;;;;1.99;68.48;101494.72;1785682;80;21164;-72
2021/04/14 04:29:53;;;;;;;28.45;8.78;;;;;;;1.98;68.54;101496.50;1785727;80;21167;-72
2021/04/14 04:32:20;;;;;;;20.30;5.58;;;;;;;1.98;68.59;101491.70;1785575;80;21907;-72
2021/04/14 04:34:46;;;;;;;21.55;6.92;;;;;;;1.95;68.65;101485.31;1785587;79;21625;-72
2021/04/14 04:37:13;;;;;;;23.57;6.42;;;;;;;1.95;68.72;101493.20;1785548;80;22189;-72
2021/04/14 04:39:40;;;;;;;22.27;5.47;;;;;;;1.96;68.77;101493.59;1785445;79;21565;-72
2021/04/14 04:42:08;;;;;;;17.80;5.55;;;;;;;1.94;68.80;101489.72;1785704;79;21151;-72
2021/04/14 04:44:34;;;;;;;19.45;5.37;;;;;;;1.95;68.87;101497.14;1785663;80;21175;-72
2021/04/14 04:47:01;;;;;;;17.90;4.17;;;;;;;1.98;68.93;101504.39;1785421;80;21569;-71
2021/04/14 04:49:27;;;;;;;12.73;4.80;;;;;;;1.98;68.95;101496.96;1785677;79;22155;-71
2021/04/14 04:51:53;;;;;;;18.15;4.95;;;;;;;1.99;69.00;101501.30;1785535;80;21148;-72
2021/04/14 04:54:20;;;;;;;17.12;4.50;;;;;;;1.99;69.04;101500.84;1785260;80;21199;-72
2021/04/14 04:56:46;;;;;;;13.75;4.62;;;;;;;2.03;69.11;101504.14;1785561;80;21131;-72
2021/04/14 04:59:12;;;;;;;16.87;5.00;;;;;;;2.04;69.16;101509.78;1785743;80;21148;-71
2021/04/14 05:01:40;;;;;;;16.15;3.98;;;;;;;2.10;69.19;101508.58;1761922;80;21304;-71
2021/04/14 05:04:07;;;;;;;16.77;4.67;;;;;;;2.14;69.26;101514.04;1756469;81;21660;-72
2021/04/14 05:06:33;;;;;;;52.85;13.18;;;;;;;2.20;69.28;101517.16;1763098;80;21137;-72
2021/04/14 05:09:00;;;;;;;73.10;17.92;;;;;;;2.24;69.34;101516.05;1755621;81;21480;-71
2021/04/14 05:11:26;;;;;;;52.45;12.88;;;;;;;2.28;69.39;101517.57;1755895;81;21187;-72
2021/04/14 05:13:53;;;;;;;25.15;6.95;;;;;;;2.32;69.42;101519.06;1757082;80;21416;-72
2021/04/14 05:16:19;;;;;;;16.82;6.08;;;;;;;2.35;69.45;101516.73;1694571;84;21673;-71
2021/04/14 05:18:45;;;;;;;19.73;6.28;;;;;;;2.38;69.47;101518.72;1756430;80;21136;-71
2021/04/14 05:21:12;;;;;;;17.73;5.37;;;;;;;2.42;69.51;101516.30;1756054;81;21155;-72
2021/04/14 05:23:38;;;;;;;18.20;8.00;;;;;;;2.44;69.54;101518.34;1780396;80;21647;-72
2021/04/14 05:26:05;;;;;;;31.07;9.30;;;;;;;2.49;69.55;101522.89;1787347;80;21203;-71
2021/04/14 05:28:31;;;;;;;17.17;6.40;;;;;;;2.53;69.59;101521.73;1765750;80;21223;-72
2021/04/14 05:30:57;;;;;;;27.80;7.47;;;;;;;2.57;69.60;101523.72;1694745;84;21179;-72
2021/04/14 05:33:24;;;;;;;15.25;4.78;;;;;;;2.59;69.59;101528.91;1747168;82;21368;-72
2021/04/14 05:35:53;;;;;;;22.95;5.97;;;;;;;2.62;69.61;101523.45;1751049;80;21168;-72
2021/04/14 05:38:19;;;;;;;16.07;4.30;;;;;;;2.66;69.65;101522.34;1725107;83;22054;-72
2021/04/14 05:40:46;;;;;;;23.57;6.28;;;;;;;2.67;69.66;101526.68;1760663;81;21189;-72
2021/04/14 05:43:16;;;;;;;25.68;4.22;;;;;;;2.73;69.68;101532.89;1737544;81;21554;-72
2021/04/14 05:45:45;;;;;;;16.50;4.17;;;;;;;2.78;69.69;101526.88;1696008;84;21171;-72
2021/04/14 05:48:12;;;;;;;21.12;4.60;;;;;;;2.80;69.68;101528.48;1753929;81;21547;-72
2021/04/14 05:50:38;;;;;;;18.45;5.58;;;;;;;2.81;69.72;101526.70;1758631;81;21202;-72
2021/04/14 05:53:05;;;;;;;16.90;5.12;;;;;;;2.84;69.74;101527.36;1726084;82;21594;-72
2021/04/14 05:55:31;;;;;;;18.10;5.22;;;;;;;2.90;69.75;101520.39;1733343;80;21140;-72
2021/04/14 05:57:57;;;;;;;22.42;5.87;;;;;;;2.98;69.73;101523.88;1737073;82;21207;-72
2021/04/14 06:00:24;;;;;;;28.80;6.42;;;;;;;3.03;69.75;101520.01;1736709;82;21174;-72
2021/04/14 06:02:50;;;;;;;33.65;11.35;;;;;;;3.04;69.76;101519.55;1753660;81;21149;-72
2021/04/14 06:05:18;;;;;;;39.05;13.93;;;;;;;3.05;69.77;101517.30;1738147;81;21621;-72
2021/04/14 06:07:46;;;;;;;38.70;12.37;;;;;;;3.14;69.77;101529.03;1737384;82;21419;-72
2021/04/14 06:10:13;;;;;;;26.27;11.00;;;;;;;3.22;69.77;101521.52;1737223;81;21137;-72
2021/04/14 06:12:40;;;;;;;49.15;16.15;;;;;;;3.26;69.74;101517.28;1747830;81;21140;-71
2021/04/14 06:15:08;;;;;;;88.85;31.02;;;;;;;3.30;69.72;101520.10;1723152;82;21203;-72
2021/04/14 06:17:35;;;;;;;66.33;19.20;;;;;;;3.34;69.72;101520.27;1747966;80;21179;-72
2021/04/14 06:20:03;;;;;;;68.30;24.45;;;;;;;3.33;69.68;101522.55;1740670;82;21179;-72
2021/04/14 06:22:30;;;;;;;54.40;15.38;;;;;;;3.37;69.67;101526.69;1740581;82;21171;-73
2021/04/14 06:24:56;;;;;;;46.90;11.33;;;;;;;3.48;69.68;101527.33;1740344;82;21254;-73
2021/04/14 06:30:07;;;;;;;19.10;4.97;;;;;;;3.70;69.64;101521.51;1852120;77;22432;-73
2021/04/14 06:32:33;;;;;;;19.40;4.50;;;;;;;3.71;69.61;101522.74;1824321;78;21143;-73
2021/04/14 06:35:00;;;;;;;19.05;6.20;;;;;;;3.68;69.61;101530.00;1824187;78;22154;-73
2021/04/14 06:37:26;;;;;;;20.05;4.95;;;;;;;3.67;69.61;101523.03;1824216;78;21238;-73
2021/04/14 06:45:51;;;;;;;34.98;11.03;;;;;;;3.79;69.55;101522.25;1815646;77;22698;-73
2021/04/14 06:48:45;;;;;;;28.40;8.83;;;;;;;3.79;69.52;101524.89;1779554;80;21172;-73
2021/04/14 06:51:36;;;;;;;45.48;12.75;;;;;;;3.84;69.48;101520.15;1756546;81;21268;-73
2021/04/14 06:54:50;;;;;;;29.80;10.43;;;;;;;3.90;69.47;101525.05;1756541;81;21998;-73
2021/04/14 06:57:32;;;;;;;30.88;11.90;;;;;;;3.96;69.47;101523.32;1727266;81;21192;-73
2021/04/14 07:00:11;;;;;;;53.70;26.10;;;;;;;3.97;69.47;101526.34;1759150;80;21552;-73
2021/04/14 07:02:54;;;;;;;61.37;28.62;;;;;;;4.02;69.48;101522.91;1776403;80;21155;-73
2021/04/14 07:05:27;;;;;;;48.38;18.77;;;;;;;4.07;69.49;101526.11;1781610;80;21251;-73
2021/04/14 07:07:56;;;;;;;27.00;9.08;;;;;;;4.06;69.47;101525.73;1773361;80;21570;-73
2021/04/14 07:10:26;;;;;;;23.42;8.03;;;;;;;4.05;69.48;101522.70;1713709;81;21182;-72
2021/04/14 07:12:54;;;;;;;22.10;6.53;;;;;;;4.15;69.48;101519.83;1716340;82;21566;-73
2021/04/14 07:15:21;;;;;;;44.38;13.93;;;;;;;4.23;69.42;101513.58;1693166;83;21170;-73
2021/04/14 07:18:19;;;;;;;26.48;10.23;;;;;;;4.30;69.41;101524.10;1680607;84;23046;-73
2021/04/14 07:20:50;;;;;;;33.70;11.33;;;;;;;4.39;69.38;101520.86;1715464;83;21203;-73
2021/04/14 07:23:47;;;;;;;23.40;8.33;;;;;;;4.47;69.32;101526.45;1688000;84;21228;-73
2021/04/14 07:26:21;;;;;;;30.92;9.80;;;;;;;4.42;69.30;101525.94;1683073;84;21198;-73
2021/04/14 07:29:26;;;;;;;27.52;10.85;;;;;;;4.35;69.27;101522.02;1695464;84;21201;-73
2021/04/14 07:32:23;;;;;;;31.93;12.45;;;;;;;4.40;69.25;101523.86;1698946;82;21490;-72
2021/04/14 07:35:12;;;;;;;22.48;8.45;;;;;;;4.63;69.22;101520.14;1692179;84;21569;-73
2021/04/14 07:37:58;;;;;;;21.80;5.53;;;;;;;4.78;69.17;101519.11;1682600;82;22356;-73
2021/04/14 07:40:33;;;;;;;15.03;6.33;;;;;;;4.81;69.17;101523.70;1689774;82;21255;-73
2021/04/14 07:43:13;;;;;;;28.10;10.50;;;;;;;4.89;69.15;101527.14;1699087;84;21562;-72
2021/04/14 07:45:40;;;;;;;;;;;;;;;4.98;69.13;101526.50;1683647;84;21292;-72
2021/04/14 07:48:16;;;;;;;30.32;11.60;;;;;;;5.07;69.09;101523.20;1686891;84;20282;-73
2021/04/14 07:50:48;;;;;;;17.45;6.85;;;;;;;5.07;69.05;101527.17;1694755;84;21181;-73
2021/04/14 07:53:24;;;;;;;15.40;5.62;;;;;;;4.96;68.99;101528.42;1681878;84;21627;-73
2021/04/14 07:56:19;;;;;;;42.55;16.62;;;;;;;4.84;68.98;101518.67;1687659;84;21578;-73
2021/04/14 07:58:45;;;;;;;26.85;11.25;;;;;;;4.87;68.98;101521.10;1649150;85;21219;-73
2021/04/14 08:01:23;;;;;;;27.67;9.93;;;;;;;4.85;68.91;101520.38;1672854;84;21207;-73
2021/04/14 08:03:50;;;;;;;34.13;12.03;;;;;;;4.79;68.85;101520.78;1676130;84;21158;-73
2021/04/14 08:06:28;;;;;;;22.67;9.23;;;;;;;4.80;68.81;101518.05;1688361;84;21216;-73
2021/04/14 08:08:55;;;;;;;23.77;7.72;;;;;;;4.88;68.78;101521.48;1697552;84;21163;-73
2021/04/14 08:11:33;;;;;;;22.60;9.65;;;;;;;5.04;68.74;101518.13;1700274;84;21226;-77
2021/04/14 08:14:32;;;;;;;19.70;6.83;;;;;;;5.16;68.70;101523.05;1684275;84;21146;-79
2021/04/14 08:16:55;;;;;;;21.52;6.72;;;;;;;5.17;68.64;101524.28;1676142;84;21212;-77
2021/04/14 08:19:28;;;;;;;19.17;6.85;;;;;;;5.12;68.60;101525.06;1691988;82;21162;-78
2021/04/14 08:22:01;;;;;;;9.30;4.47;;;;;;;5.10;68.54;101523.02;1659802;84;21175;-78
2021/04/14 08:24:38;;;;;;;26.27;9.50;;;;;;;5.07;68.54;101525.84;1688030;84;21229;-78
2021/04/14 08:27:26;;;;;;;19.05;5.78;;;;;;;5.05;68.52;101513.22;1701110;84;21212;-77
2021/04/14 08:30:18;;;;;;;24.85;7.17;;;;;;;5.01;68.49;101520.99;1667110;84;21148;-77
2021/04/14 08:33:01;;;;;;;26.87;7.92;;;;;;;4.90;68.48;101515.60;1718429;82;21151;-76
2021/04/14 08:35:41;;;;;;;23.65;7.37;;;;;;;4.93;68.47;101513.59;1685853;83;21194;-77
2021/04/14 08:38:26;;;;;;;22.32;7.70;;;;;;;5.02;68.44;101519.58;1683101;84;21250;-77
2021/04/14 08:40:59;;;;;;;26.82;10.23;;;;;;;5.15;68.38;101507.66;1716802;82;21199;-77
2021/04/14 08:43:40;;;;;;;26.48;9.10;;;;;;;5.37;68.41;101506.98;1713058;83;21767;-77
2021/04/14 08:46:15;;;;;;;34.70;11.80;;;;;;;5.52;68.38;101508.03;1704473;83;21167;-77
2021/04/14 08:48:56;;;;;;;14.65;5.50;;;;;;;5.60;68.29;101505.31;1715024;83;21184;-77
2021/04/14 08:51:22;;;;;;;18.10;5.87;;;;;;;5.64;68.24;101505.47;1716059;83;21470;-76
2021/04/14 08:53:49;;;;;;;20.32;7.40;;;;;;;5.68;68.15;101504.30;1716185;83;21257;-76
2021/04/14 08:59:01;;;;;;;28.80;9.20;;;;;;;5.78;68.05;101500.86;1799188;78;22544;-77
2021/04/14 09:01:31;;;;;;;22.10;9.35;;;;;;;5.77;67.99;101494.37;1771193;79;21200;-78
2021/04/14 09:03:56;;;;;;;16.35;5.42;;;;;;;5.81;67.91;101502.44;1769855;79;21401;-77
2021/04/14 09:06:22;;;;;;;16.55;5.40;;;;;;;5.88;67.85;101502.38;1771802;79;21219;-77
2021/04/14 09:08:52;;;;;;;19.37;5.78;;;;;;;5.87;67.78;101502.04;1788036;79;21159;-77
2021/04/14 09:11:25;;;;;;;18.90;7.47;;;;;;;5.85;67.74;101498.61;1758712;81;21187;-77
2021/04/14 09:14:01;;;;;;;16.60;5.55;;;;;;;5.83;67.68;101496.56;1757082;80;21152;-77
2021/04/14 09:16:48;;;;;;;30.23;9.30;;;;;;;5.87;67.65;101490.13;1709243;81;21366;-77
2021/04/14 09:19:32;;;;;;;49.13;24.02;;;;;;;5.90;67.59;101493.39;1694194;84;21252;-78
2021/04/14 09:22:05;;;;;;;56.95;26.70;;;;;;;6.00;67.56;101486.93;1724619;82;21179;-77
2021/04/14 09:24:47;;;;;;;83.97;42.80;;;;;;;5.96;67.46;101493.41;1729710;81;21152;-78
2021/04/14 09:27:40;;;;;;;51.65;23.95;;;;;;;6.02;67.41;101488.97;1674944;85;21119;-78
2021/04/14 09:30:37;;;;;;;23.12;10.28;;;;;;;5.94;67.29;101491.36;1703194;84;21842;-78
2021/04/14 09:33:09;;;;;;;16.75;5.92;;;;;;;5.75;67.19;101494.95;1673899;84;21625;-78
2021/04/14 09:35:41;;;;;;;18.02;5.75;;;;;;;5.62;67.15;101489.72;1703805;84;21175;-78
2021/04/14 09:41:25;;;;;;;18.67;7.10;;;;;;;5.80;67.02;101495.47;1810783;78;22803;-77
2021/04/14 09:43:54;;;;;;;20.65;8.63;;;;;;;5.87;66.95;101496.27;1796478;79;21203;-77
2021/04/14 09:46:31;;;;;;;40.03;18.87;;;;;;;6.03;66.87;101483.58;1771352;79;21245;-78
2021/04/14 09:49:16;;;;;;;32.88;11.83;;;;;;;6.18;66.78;101481.59;1792161;80;21175;-78
2021/04/14 09:51:56;;;;;;;20.50;7.22;;;;;;;6.41;66.75;101484.66;1783138;79;21138;-78
2021/04/14 09:54:26;;;;;;;20.30;7.05;;;;;;;6.61;66.60;101480.98;1768539;80;22063;-78
2021/04/14 09:56:53;;;;;;;16.30;6.70;;;;;;;6.69;66.49;101479.41;1740036;81;21168;-78
2021/04/14 09:59:29;;;;;;;24.12;8.05;;;;;;;6.75;66.34;101478.11;1774822;80;22031;-78
2021/04/14 10:02:04;;;;;;;17.55;7.30;;;;;;;6.77;66.21;101476.17;1769181;80;21589;-78
2021/04/14 10:04:32;;;;;;;20.48;7.05;;;;;;;6.79;66.09;101475.08;1757040;81;21133;-78
2021/04/14 10:07:06;;;;;;;17.90;6.80;;;;;;;6.85;65.96;101472.45;1713055;81;21119;-78
2021/04/14 10:09:36;;;;;;;13.90;6.10;;;;;;;6.77;65.79;101474.84;1760948;80;21128;-78
2021/04/14 10:12:17;;;;;;;30.40;8.95;;;;;;;6.64;65.68;101478.09;1778322;80;21159;-77
2021/04/14 10:14:55;;;;;;;13.70;7.20;;;;;;;6.57;65.60;101475.55;1778828;80;21230;-78
2021/04/14 10:17:23;;;;;;;13.65;6.22;;;;;;;6.59;65.52;101473.61;1760547;81;21159;-78
2021/04/14 10:22:47;;;;;;;23.40;9.15;;;;;;;6.79;65.31;101462.33;1785250;79;23367;-76
2021/04/14 10:25:25;;;;;;;;;;;;;;;6.91;65.25;101460.03;1766718;80;21164;-79
2021/04/14 10:28:08;;;;;;;30.57;9.50;;;;;;;7.13;65.15;101456.05;1764421;80;21136;-79
2021/04/14 10:30:37;;;;;;;18.92;7.80;;;;;;;7.15;64.97;101451.45;1773058;79;21175;-78
2021/04/14 10:33:07;;;;;;;27.32;9.18;;;;;;;7.00;64.78;101451.37;1777843;79;21226;-79
2021/04/14 10:35:34;;;;;;;14.07;5.70;;;;;;;6.87;64.66;101450.63;1764196;81;21619;-77
2021/04/14 10:38:01;;;;;;;19.95;7.25;;;;;;;6.79;64.56;101445.91;1778155;79;21158;-78
2021/04/14 10:40:38;;;;;;;19.77;8.35;;;;;;;6.71;64.47;101452.80;1773112;79;21171;-78
2021/04/14 10:43:15;;;;;;;26.20;8.98;;;;;;;6.65;64.40;101455.93;1776750;79;21217;-78
2021/04/14 10:46:06;;;;;;;26.42;10.23;;;;;;;6.61;64.30;101453.16;1738164;81;21220;-79
2021/04/14 10:48:36;;;;;;;29.90;10.03;;;;;;;6.51;64.08;101457.81;1762796;81;21156;-78
2021/04/14 10:51:12;;;;;;;17.65;6.22;;;;;;;6.28;63.75;101452.59;1776561;80;21676;-78
2021/04/14 10:53:40;;;;;;;24.55;9.20;;;;;;;6.21;63.62;101460.17;1790804;79;22083;-79
2021/04/14 10:56:25;;;;;;;25.57;10.32;;;;;;;6.21;63.52;101453.55;1761989;79;21678;-79
2021/04/14 10:58:51;;;;;;;30.37;14.28;;;;;;;6.28;63.46;101452.59;1778861;79;21159;-78
2021/04/14 11:01:21;;;;;;;13.95;6.37;;;;;;;6.40;63.38;101457.79;1795321;79;21162;-79
2021/04/14 11:04:18;;;;;;;23.80;13.58;;;;;;;6.42;63.28;101459.86;1786317;79;24023;-79
2021/04/14 11:06:46;;;;;;;20.72;10.40;;;;;;;6.39;63.17;101453.47;1769326;79;21286;-78
2021/04/14 11:09:13;;;;;;;16.27;9.28;;;;;;;6.46;63.08;101444.09;1732360;81;21207;-79
2021/04/14 11:11:40;;;;;;;15.88;8.58;;;;;;;6.59;63.02;101448.43;1764560;79;21127;-79
2021/04/14 11:14:08;;;;;;;15.98;7.40;;;;;;;6.78;62.98;101451.36;1765949;79;21225;-79
2021/04/14 11:16:40;;;;;;;33.60;15.68;;;;;;;6.94;62.81;101441.22;1764559;81;21604;-79
2021/04/14 11:19:22;;;;;;;43.90;20.32;;;;;;;7.09;62.71;101441.34;1778427;79;21207;-78
2021/04/14 11:22:08;;;;;;;9.28;6.87;;;;;;;7.13;62.59;101438.81;1777475;78;21215;-77
2021/04/14 11:24:55;;;;;;;19.55;8.98;;;;;;;7.11;62.46;101440.72;1797732;78;21162;-78
2021/04/14 11:27:29;;;;;;;12.82;4.78;;;;;;;7.01;62.31;101434.47;1791541;79;21690;-77
2021/04/14 11:30:11;;;;;;;34.90;17.42;;;;;;;6.96;62.21;101436.66;1793748;79;21223;-78
2021/04/14 11:32:37;;;;;;;15.28;5.67;;;;;;;6.95;62.12;101432.31;1798806;79;21279;-78
2021/04/14 11:35:12;;;;;;;30.08;13.28;;;;;;;6.88;62.02;101424.00;1784946;79;21269;-78
2021/04/14 11:37:43;;;;;;;54.98;31.37;;;;;;;6.80;61.97;101438.81;1781252;79;21149;-78
2021/04/14 11:40:24;;;;;;;22.70;11.10;;;;;;;6.69;61.87;101431.70;1798105;79;21179;-78
2021/04/14 11:42:58;;;;;;;25.35;10.43;;;;;;;6.59;61.78;101429.88;1800678;79;21683;-79
2021/04/14 11:45:35;;;;;;;21.68;5.87;;;;;;;6.58;61.70;101434.33;1773338;79;21203;-78
2021/04/14 11:48:15;;;;;;;13.95;5.65;;;;;;;6.59;61.62;101429.88;1793011;79;21664;-78
2021/04/14 11:50:44;;;;;;;;;;;;;;;6.66;61.53;101431.09;1784093;79;21150;-78
2021/04/14 11:53:30;;;;;;;8.38;4.40;;;;;;;6.76;61.44;101428.08;1800647;78;20281;-78
2021/04/14 11:56:00;;;;;;;24.18;10.13;;;;;;;6.82;61.27;101426.30;1765339;80;21747;-78
2021/04/14 11:58:36;;;;;;;26.02;11.38;;;;;;;6.96;61.16;101428.70;1757553;81;22093;-78
2021/04/14 12:01:03;;;;;;;14.65;5.33;;;;;;;7.09;61.02;101432.06;1774134;78;21200;-77